sensor_id;sensor_type;location;lat;lon;timestamp;pressure;altitude;pressure_sealevel;temperature;humidity
55460;BME280;41326;45.302;-122.946;2023-06-14T00:00:53;101102.08;;;22.22;56.62
55460;BME280;41326;45.302;-122.946;2023-06-14T00:03:23;101104.93;;;22.22;56.66
55460;BME280;41326;45.302;-122.946;2023-06-14T00:05:53;101110.75;;;22.24;56.62
55460;BME280;41326;45.302;-122.946;2023-06-14T00:08:24;101112.80;;;22.25;56.58
55460;BME280;41326;45.302;-122.946;2023-06-14T00:10:54;101108.32;;;22.26;56.55
55460;BME280;41326;45.302;-122.946;2023-06-14T00:13:24;101110.19;;;22.29;56.36
55460;BME280;41326;45.302;-122.946;2023-06-14T00:15:55;101112.43;;;22.31;56.24
55460;BME280;41326;45.302;-122.946;2023-06-14T00:18:25;101116.33;;;22.29;56.34
55460;BME280;41326;45.302;-122.946;2023-06-14T00:20:56;101114.71;;;22.25;56.49
55460;BME280;41326;45.302;-122.946;2023-06-14T00:23:26;101114.23;;;22.27;56.47
55460;BME280;41326;45.302;-122.946;2023-06-14T00:25:56;101115.81;;;22.29;56.42
55460;BME280;41326;45.302;-122.946;2023-06-14T00:28:28;101107.45;;;22.31;56.40
55460;BME280;41326;45.302;-122.946;2023-06-14T00:30:57;101107.35;;;22.30;56.45
55460;BME280;41326;45.302;-122.946;2023-06-14T00:33:27;101108.57;;;22.27;56.43
55460;BME280;41326;45.302;-122.946;2023-06-14T00:35:57;101107.45;;;22.27;56.41
55460;BME280;41326;45.302;-122.946;2023-06-14T00:38:28;101110.29;;;22.27;56.45
55460;BME280;41326;45.302;-122.946;2023-06-14T00:40:58;101111.31;;;22.27;56.49
55460;BME280;41326;45.302;-122.946;2023-06-14T00:43:28;101109.75;;;22.29;56.45
55460;BME280;41326;45.302;-122.946;2023-06-14T00:45:58;101110.48;;;22.30;56.44
55460;BME280;41326;45.302;-122.946;2023-06-14T00:48:30;101107.12;;;22.30;56.48
55460;BME280;41326;45.302;-122.946;2023-06-14T00:51:00;101112.41;;;22.31;56.46
55460;BME280;41326;45.302;-122.946;2023-06-14T00:53:30;101108.50;;;22.30;56.42
55460;BME280;41326;45.302;-122.946;2023-06-14T00:56:00;101103.12;;;22.32;56.32
55460;BME280;41326;45.302;-122.946;2023-06-14T00:58:30;101098.12;;;22.34;56.32
55460;BME280;41326;45.302;-122.946;2023-06-14T01:01:00;101099.15;;;22.33;56.36
55460;BME280;41326;45.302;-122.946;2023-06-14T01:03:31;101093.31;;;22.33;56.38
55460;BME280;41326;45.302;-122.946;2023-06-14T01:06:10;101087.90;;;22.36;56.34
55460;BME280;41326;45.302;-122.946;2023-06-14T01:08:36;101086.78;;;22.39;56.30
55460;BME280;41326;45.302;-122.946;2023-06-14T01:11:10;101085.34;;;22.36;56.49
55460;BME280;41326;45.302;-122.946;2023-06-14T01:13:35;101081.20;;;22.42;56.31
55460;BME280;41326;45.302;-122.946;2023-06-14T01:16:03;101072.43;;;22.41;55.05
55460;BME280;41326;45.302;-122.946;2023-06-14T01:18:34;101075.18;;;22.21;51.10
55460;BME280;41326;45.302;-122.946;2023-06-14T01:21:03;101075.15;;;21.95;52.04
55460;BME280;41326;45.302;-122.946;2023-06-14T01:23:33;101071.80;;;21.71;48.52
55460;BME280;41326;45.302;-122.946;2023-06-14T01:26:04;101075.59;;;21.55;53.94
55460;BME280;41326;45.302;-122.946;2023-06-14T01:28:34;101077.95;;;21.62;54.27
55460;BME280;41326;45.302;-122.946;2023-06-14T01:31:06;101077.45;;;21.74;54.26
55460;BME280;41326;45.302;-122.946;2023-06-14T01:33:36;101080.28;;;21.88;54.66
55460;BME280;41326;45.302;-122.946;2023-06-14T01:36:05;101080.98;;;21.96;55.20
55460;BME280;41326;45.302;-122.946;2023-06-14T01:38:37;101079.66;;;22.05;55.16
55460;BME280;41326;45.302;-122.946;2023-06-14T01:41:06;101079.43;;;22.12;55.11
55460;BME280;41326;45.302;-122.946;2023-06-14T01:43:37;101080.43;;;22.20;55.02
55460;BME280;41326;45.302;-122.946;2023-06-14T01:46:06;101091.21;;;22.23;54.70
55460;BME280;41326;45.302;-122.946;2023-06-14T01:48:37;101092.21;;;22.31;54.35
55460;BME280;41326;45.302;-122.946;2023-06-14T01:51:07;101092.10;;;22.38;53.88
55460;BME280;41326;45.302;-122.946;2023-06-14T01:53:37;101088.20;;;22.36;53.03
55460;BME280;41326;45.302;-122.946;2023-06-14T01:56:07;101082.59;;;22.20;51.47
55460;BME280;41326;45.302;-122.946;2023-06-14T01:58:38;101084.46;;;21.92;50.45
55460;BME280;41326;45.302;-122.946;2023-06-14T02:01:09;101078.91;;;21.65;47.60
55460;BME280;41326;45.302;-122.946;2023-06-14T02:03:39;101078.65;;;21.43;47.23
55460;BME280;41326;45.302;-122.946;2023-06-14T02:06:09;101078.60;;;21.34;52.68
55460;BME280;41326;45.302;-122.946;2023-06-14T02:08:39;101084.90;;;21.48;52.76
55460;BME280;41326;45.302;-122.946;2023-06-14T02:11:09;101089.47;;;21.63;52.69
55460;BME280;41326;45.302;-122.946;2023-06-14T02:13:39;101093.04;;;21.75;53.09
55460;BME280;41326;45.302;-122.946;2023-06-14T02:16:10;101097.04;;;21.77;53.03
55460;BME280;41326;45.302;-122.946;2023-06-14T02:18:40;101097.94;;;21.88;52.23
55460;BME280;41326;45.302;-122.946;2023-06-14T02:21:11;101101.46;;;21.91;51.95
55460;BME280;41326;45.302;-122.946;2023-06-14T02:23:41;101106.86;;;21.93;51.58
55460;BME280;41326;45.302;-122.946;2023-06-14T02:26:11;101116.10;;;21.89;50.44
55460;BME280;41326;45.302;-122.946;2023-06-14T02:28:42;101116.46;;;21.91;47.44
55460;BME280;41326;45.302;-122.946;2023-06-14T02:31:15;101117.15;;;21.89;48.69
55460;BME280;41326;45.302;-122.946;2023-06-14T02:33:42;101118.23;;;21.91;49.75
55460;BME280;41326;45.302;-122.946;2023-06-14T02:36:12;101124.15;;;21.93;50.51
55460;BME280;41326;45.302;-122.946;2023-06-14T02:38:43;101127.70;;;21.88;50.43
55460;BME280;41326;45.302;-122.946;2023-06-14T02:41:13;101121.19;;;21.88;50.34
55460;BME280;41326;45.302;-122.946;2023-06-14T02:43:43;101122.89;;;21.85;50.56
55460;BME280;41326;45.302;-122.946;2023-06-14T02:46:14;101128.48;;;21.83;50.79
55460;BME280;41326;45.302;-122.946;2023-06-14T02:48:44;101133.01;;;21.84;50.72
55460;BME280;41326;45.302;-122.946;2023-06-14T02:51:15;101138.67;;;21.83;51.58
55460;BME280;41326;45.302;-122.946;2023-06-14T02:53:46;101138.00;;;21.76;52.51
55460;BME280;41326;45.302;-122.946;2023-06-14T02:56:15;101133.93;;;21.68;52.74
55460;BME280;41326;45.302;-122.946;2023-06-14T02:58:45;101138.87;;;21.67;52.76
55460;BME280;41326;45.302;-122.946;2023-06-14T03:01:16;101140.63;;;21.67;51.28
55460;BME280;41326;45.302;-122.946;2023-06-14T03:03:46;101145.18;;;21.66;52.94
55460;BME280;41326;45.302;-122.946;2023-06-14T03:06:16;101146.34;;;21.59;51.83
55460;BME280;41326;45.302;-122.946;2023-06-14T03:08:46;101152.62;;;21.47;52.37
55460;BME280;41326;45.302;-122.946;2023-06-14T03:11:17;101158.08;;;21.44;52.67
55460;BME280;41326;45.302;-122.946;2023-06-14T03:13:48;101152.37;;;21.32;53.56
55460;BME280;41326;45.302;-122.946;2023-06-14T03:16:18;101146.21;;;21.25;52.58
55460;BME280;41326;45.302;-122.946;2023-06-14T03:18:49;101143.12;;;21.25;50.63
55460;BME280;41326;45.302;-122.946;2023-06-14T03:21:19;101144.38;;;21.28;49.40
55460;BME280;41326;45.302;-122.946;2023-06-14T03:23:54;101149.61;;;21.24;48.93
55460;BME280;41326;45.302;-122.946;2023-06-14T03:26:21;101148.96;;;21.29;49.30
55460;BME280;41326;45.302;-122.946;2023-06-14T03:28:50;101158.05;;;21.30;49.44
55460;BME280;41326;45.302;-122.946;2023-06-14T03:31:20;101161.28;;;21.28;49.29
55460;BME280;41326;45.302;-122.946;2023-06-14T03:33:50;101162.80;;;21.20;48.70
55460;BME280;41326;45.302;-122.946;2023-06-14T03:36:21;101162.58;;;21.14;47.42
55460;BME280;41326;45.302;-122.946;2023-06-14T03:38:51;101164.35;;;21.10;48.40
55460;BME280;41326;45.302;-122.946;2023-06-14T03:41:21;101166.17;;;21.09;47.00
55460;BME280;41326;45.302;-122.946;2023-06-14T03:43:51;101167.33;;;21.03;47.53
55460;BME280;41326;45.302;-122.946;2023-06-14T03:46:22;101173.74;;;20.94;47.57
55460;BME280;41326;45.302;-122.946;2023-06-14T03:48:52;101172.86;;;20.87;47.14
55460;BME280;41326;45.302;-122.946;2023-06-14T03:51:22;101181.96;;;20.83;47.46
55460;BME280;41326;45.302;-122.946;2023-06-14T03:53:53;101190.51;;;20.77;48.56
55460;BME280;41326;45.302;-122.946;2023-06-14T03:56:23;101199.30;;;20.68;48.37
55460;BME280;41326;45.302;-122.946;2023-06-14T03:58:54;101202.53;;;20.66;48.20
55460;BME280;41326;45.302;-122.946;2023-06-14T04:01:24;101204.94;;;20.64;47.50
55460;BME280;41326;45.302;-122.946;2023-06-14T04:03:55;101204.71;;;20.67;46.56
55460;BME280;41326;45.302;-122.946;2023-06-14T04:06:25;101204.23;;;20.62;46.96
55460;BME280;41326;45.302;-122.946;2023-06-14T04:08:55;101201.59;;;20.57;47.31
55460;BME280;41326;45.302;-122.946;2023-06-14T04:11:26;101204.07;;;20.51;46.77
55460;BME280;41326;45.302;-122.946;2023-06-14T04:13:56;101207.16;;;20.43;47.74
55460;BME280;41326;45.302;-122.946;2023-06-14T04:16:27;101217.50;;;20.37;47.86
55460;BME280;41326;45.302;-122.946;2023-06-14T04:18:57;101229.03;;;20.29;47.81
55460;BME280;41326;45.302;-122.946;2023-06-14T04:21:28;101231.16;;;20.18;48.72
55460;BME280;41326;45.302;-122.946;2023-06-14T04:24:02;101242.13;;;20.18;47.20
55460;BME280;41326;45.302;-122.946;2023-06-14T04:26:28;101250.00;;;20.12;47.55
55460;BME280;41326;45.302;-122.946;2023-06-14T04:28:58;101250.46;;;20.13;47.19
55460;BME280;41326;45.302;-122.946;2023-06-14T04:32:49;101257.58;;;20.03;47.15
55460;BME280;41326;45.302;-122.946;2023-06-14T04:35:20;101264.88;;;19.91;47.60
55460;BME280;41326;45.302;-122.946;2023-06-14T04:37:50;101268.57;;;19.86;47.27
55460;BME280;41326;45.302;-122.946;2023-06-14T04:40:20;101282.18;;;19.76;47.60
55460;BME280;41326;45.302;-122.946;2023-06-14T04:42:50;101288.55;;;19.71;48.22
55460;BME280;41326;45.302;-122.946;2023-06-14T04:45:20;101293.55;;;19.62;48.42
55460;BME280;41326;45.302;-122.946;2023-06-14T04:47:50;101296.95;;;19.64;48.22
55460;BME280;41326;45.302;-122.946;2023-06-14T04:50:20;101302.09;;;19.55;48.77
55460;BME280;41326;45.302;-122.946;2023-06-14T04:52:52;101312.65;;;19.51;48.26
55460;BME280;41326;45.302;-122.946;2023-06-14T04:55:22;101314.41;;;19.43;49.09
55460;BME280;41326;45.302;-122.946;2023-06-14T04:57:52;101321.49;;;19.38;48.94
55460;BME280;41326;45.302;-122.946;2023-06-14T05:00:22;101323.38;;;19.34;49.14
55460;BME280;41326;45.302;-122.946;2023-06-14T05:02:52;101328.45;;;19.32;49.23
55460;BME280;41326;45.302;-122.946;2023-06-14T05:05:23;101328.89;;;19.31;48.79
55460;BME280;41326;45.302;-122.946;2023-06-14T05:07:53;101329.09;;;19.29;47.87
55460;BME280;41326;45.302;-122.946;2023-06-14T05:10:24;101333.54;;;19.24;48.45
55460;BME280;41326;45.302;-122.946;2023-06-14T05:12:54;101336.83;;;19.13;49.04
55460;BME280;41326;45.302;-122.946;2023-06-14T05:15:24;101342.24;;;19.07;49.41
55460;BME280;41326;45.302;-122.946;2023-06-14T05:17:55;101342.15;;;19.05;49.13
55460;BME280;41326;45.302;-122.946;2023-06-14T05:20:25;101346.30;;;18.86;49.51
55460;BME280;41326;45.302;-122.946;2023-06-14T05:22:55;101352.99;;;18.76;48.79
55460;BME280;41326;45.302;-122.946;2023-06-14T05:25:26;101361.38;;;18.70;49.06
55460;BME280;41326;45.302;-122.946;2023-06-14T05:27:56;101367.53;;;18.68;49.27
55460;BME280;41326;45.302;-122.946;2023-06-14T05:30:27;101366.38;;;18.56;49.70
55460;BME280;41326;45.302;-122.946;2023-06-14T05:32:57;101370.08;;;18.50;49.45
55460;BME280;41326;45.302;-122.946;2023-06-14T05:35:27;101372.29;;;18.40;49.41
55460;BME280;41326;45.302;-122.946;2023-06-14T05:37:58;101376.78;;;18.35;49.70
55460;BME280;41326;45.302;-122.946;2023-06-14T05:40:28;101377.01;;;18.29;50.50
55460;BME280;41326;45.302;-122.946;2023-06-14T05:42:59;101378.39;;;18.23;49.78
55460;BME280;41326;45.302;-122.946;2023-06-14T05:45:28;101384.32;;;18.18;50.41
55460;BME280;41326;45.302;-122.946;2023-06-14T05:47:59;101381.11;;;18.16;50.58
55460;BME280;41326;45.302;-122.946;2023-06-14T05:50:29;101379.95;;;18.13;49.80
55460;BME280;41326;45.302;-122.946;2023-06-14T05:52:59;101383.48;;;18.01;50.10
55460;BME280;41326;45.302;-122.946;2023-06-14T05:55:30;101391.33;;;17.93;50.71
55460;BME280;41326;45.302;-122.946;2023-06-14T05:58:00;101391.94;;;17.96;49.60
55460;BME280;41326;45.302;-122.946;2023-06-14T06:00:30;101394.48;;;17.93;50.69
55460;BME280;41326;45.302;-122.946;2023-06-14T06:03:00;101403.55;;;17.85;50.76
55460;BME280;41326;45.302;-122.946;2023-06-14T06:05:30;101404.60;;;17.83;50.73
55460;BME280;41326;45.302;-122.946;2023-06-14T06:08:00;101402.23;;;17.79;50.11
55460;BME280;41326;45.302;-122.946;2023-06-14T06:10:31;101398.01;;;17.77;49.81
55460;BME280;41326;45.302;-122.946;2023-06-14T06:13:02;101403.95;;;17.65;51.23
55460;BME280;41326;45.302;-122.946;2023-06-14T06:15:36;101406.21;;;17.59;50.66
55460;BME280;41326;45.302;-122.946;2023-06-14T06:18:02;101408.15;;;17.55;51.40
55460;BME280;41326;45.302;-122.946;2023-06-14T06:20:32;101409.19;;;17.55;50.93
55460;BME280;41326;45.302;-122.946;2023-06-14T06:23:03;101409.74;;;17.49;51.12
55460;BME280;41326;45.302;-122.946;2023-06-14T06:25:33;101417.24;;;17.41;52.28
55460;BME280;41326;45.302;-122.946;2023-06-14T06:28:04;101421.31;;;17.36;51.79
55460;BME280;41326;45.302;-122.946;2023-06-14T06:30:34;101423.71;;;17.38;51.59
55460;BME280;41326;45.302;-122.946;2023-06-14T06:33:04;101424.06;;;17.27;51.50
55460;BME280;41326;45.302;-122.946;2023-06-14T06:35:34;101424.31;;;17.22;52.87
55460;BME280;41326;45.302;-122.946;2023-06-14T06:38:05;101424.84;;;17.34;53.19
55460;BME280;41326;45.302;-122.946;2023-06-14T06:40:35;101424.15;;;17.52;53.00
55460;BME280;41326;45.302;-122.946;2023-06-14T06:43:05;101424.46;;;17.68;52.77
55460;BME280;41326;45.302;-122.946;2023-06-14T06:45:35;101430.72;;;17.82;52.63
55460;BME280;41326;45.302;-122.946;2023-06-14T06:48:06;101431.98;;;17.93;52.47
55460;BME280;41326;45.302;-122.946;2023-06-14T06:50:37;101435.60;;;18.06;52.34
55460;BME280;41326;45.302;-122.946;2023-06-14T06:53:06;101436.37;;;18.14;52.32
55460;BME280;41326;45.302;-122.946;2023-06-14T06:55:38;101437.75;;;18.18;52.45
55460;BME280;41326;45.302;-122.946;2023-06-14T06:58:08;101438.11;;;18.29;52.28
55460;BME280;41326;45.302;-122.946;2023-06-14T07:00:38;101437.66;;;18.40;52.22
55460;BME280;41326;45.302;-122.946;2023-06-14T07:03:08;101440.03;;;18.49;52.13
55460;BME280;41326;45.302;-122.946;2023-06-14T07:05:38;101445.71;;;18.50;52.18
55460;BME280;41326;45.302;-122.946;2023-06-14T07:08:09;101447.80;;;18.57;52.13
55460;BME280;41326;45.302;-122.946;2023-06-14T07:10:40;101448.11;;;18.65;52.03
55460;BME280;41326;45.302;-122.946;2023-06-14T07:13:09;101451.82;;;18.61;52.19
55460;BME280;41326;45.302;-122.946;2023-06-14T07:15:39;101452.52;;;18.66;52.09
55460;BME280;41326;45.302;-122.946;2023-06-14T07:20:40;101450.83;;;18.66;52.08
55460;BME280;41326;45.302;-122.946;2023-06-14T07:23:10;101449.73;;;18.64;52.15
55460;BME280;41326;45.302;-122.946;2023-06-14T07:25:40;101448.96;;;18.68;52.08
55460;BME280;41326;45.302;-122.946;2023-06-14T07:28:11;101451.94;;;18.68;52.06
55460;BME280;41326;45.302;-122.946;2023-06-14T07:30:41;101455.37;;;18.67;52.15
55460;BME280;41326;45.302;-122.946;2023-06-14T07:33:11;101454.04;;;18.69;52.17
55460;BME280;41326;45.302;-122.946;2023-06-14T07:35:41;101456.18;;;18.70;52.13
55460;BME280;41326;45.302;-122.946;2023-06-14T07:38:12;101458.23;;;18.73;52.16
55460;BME280;41326;45.302;-122.946;2023-06-14T07:40:43;101458.76;;;18.74;52.12
55460;BME280;41326;45.302;-122.946;2023-06-14T07:43:13;101460.23;;;18.73;52.06
55460;BME280;41326;45.302;-122.946;2023-06-14T07:45:43;101459.39;;;18.73;52.09
55460;BME280;41326;45.302;-122.946;2023-06-14T07:48:14;101465.37;;;18.73;52.10
55460;BME280;41326;45.302;-122.946;2023-06-14T07:50:44;101466.60;;;18.72;52.07
55460;BME280;41326;45.302;-122.946;2023-06-14T07:53:14;101471.39;;;18.70;52.13
55460;BME280;41326;45.302;-122.946;2023-06-14T07:55:46;101473.77;;;18.71;52.14
55460;BME280;41326;45.302;-122.946;2023-06-14T07:58:15;101474.01;;;18.72;52.10
55460;BME280;41326;45.302;-122.946;2023-06-14T08:00:46;101474.77;;;18.75;52.04
55460;BME280;41326;45.302;-122.946;2023-06-14T08:03:17;101471.38;;;18.76;52.15
55460;BME280;41326;45.302;-122.946;2023-06-14T08:05:46;101465.01;;;18.75;52.15
55460;BME280;41326;45.302;-122.946;2023-06-14T08:08:17;101467.62;;;18.77;52.04
55460;BME280;41326;45.302;-122.946;2023-06-14T08:10:47;101468.41;;;18.72;52.02
55460;BME280;41326;45.302;-122.946;2023-06-14T08:13:18;101462.03;;;18.76;51.92
55460;BME280;41326;45.302;-122.946;2023-06-14T08:15:48;101463.37;;;18.73;51.90
55460;BME280;41326;45.302;-122.946;2023-06-14T08:18:18;101458.46;;;18.74;51.85
55460;BME280;41326;45.302;-122.946;2023-06-14T08:20:48;101459.79;;;18.70;51.87
55460;BME280;41326;45.302;-122.946;2023-06-14T08:23:18;101459.85;;;18.68;51.92
55460;BME280;41326;45.302;-122.946;2023-06-14T08:25:49;101464.50;;;18.70;52.01
55460;BME280;41326;45.302;-122.946;2023-06-14T08:28:20;101461.71;;;18.70;52.02
55460;BME280;41326;45.302;-122.946;2023-06-14T08:30:50;101463.20;;;18.72;52.01
55460;BME280;41326;45.302;-122.946;2023-06-14T08:33:20;101467.50;;;18.69;51.99
55460;BME280;41326;45.302;-122.946;2023-06-14T08:35:51;101469.58;;;18.69;51.97
55460;BME280;41326;45.302;-122.946;2023-06-14T08:38:21;101474.98;;;18.71;51.87
55460;BME280;41326;45.302;-122.946;2023-06-14T08:40:57;101473.10;;;18.72;51.90
55460;BME280;41326;45.302;-122.946;2023-06-14T08:43:22;101471.49;;;18.72;51.94
55460;BME280;41326;45.302;-122.946;2023-06-14T08:45:53;101476.88;;;18.71;51.83
55460;BME280;41326;45.302;-122.946;2023-06-14T08:48:24;101478.30;;;18.70;51.83
55460;BME280;41326;45.302;-122.946;2023-06-14T08:50:54;101479.85;;;18.66;51.95
55460;BME280;41326;45.302;-122.946;2023-06-14T08:53:23;101483.99;;;18.64;52.06
55460;BME280;41326;45.302;-122.946;2023-06-14T08:55:54;101483.56;;;18.66;51.96
55460;BME280;41326;45.302;-122.946;2023-06-14T08:58:24;101483.34;;;18.71;51.85
55460;BME280;41326;45.302;-122.946;2023-06-14T09:00:54;101482.94;;;18.71;51.85
55460;BME280;41326;45.302;-122.946;2023-06-14T09:03:24;101491.59;;;18.64;51.98
55460;BME280;41326;45.302;-122.946;2023-06-14T09:05:55;101495.16;;;18.64;51.98
55460;BME280;41326;45.302;-122.946;2023-06-14T09:08:25;101500.17;;;18.64;52.05
55460;BME280;41326;45.302;-122.946;2023-06-14T09:10:56;101504.45;;;18.63;52.03
55460;BME280;41326;45.302;-122.946;2023-06-14T09:13:26;101502.96;;;18.60;51.94
55460;BME280;41326;45.302;-122.946;2023-06-14T09:15:56;101503.62;;;18.60;51.99
55460;BME280;41326;45.302;-122.946;2023-06-14T09:20:59;101508.06;;;18.59;52.16
55460;BME280;41326;45.302;-122.946;2023-06-14T09:23:28;101513.39;;;18.61;52.15
55460;BME280;41326;45.302;-122.946;2023-06-14T09:25:58;101514.78;;;18.61;52.11
55460;BME280;41326;45.302;-122.946;2023-06-14T09:28:33;101512.91;;;18.58;52.17
55460;BME280;41326;45.302;-122.946;2023-06-14T09:30:58;101509.92;;;18.56;52.23
55460;BME280;41326;45.302;-122.946;2023-06-14T09:33:30;101505.62;;;18.55;52.12
55460;BME280;41326;45.302;-122.946;2023-06-14T09:36:00;101510.39;;;18.48;52.22
55460;BME280;41326;45.302;-122.946;2023-06-14T09:38:30;101513.80;;;18.52;52.17
55460;BME280;41326;45.302;-122.946;2023-06-14T09:41:01;101514.14;;;18.54;52.17
55460;BME280;41326;45.302;-122.946;2023-06-14T09:43:30;101519.46;;;18.51;52.26
55460;BME280;41326;45.302;-122.946;2023-06-14T09:46:00;101518.94;;;18.50;52.30
55460;BME280;41326;45.302;-122.946;2023-06-14T09:48:29;101521.75;;;18.52;52.31
55460;BME280;41326;45.302;-122.946;2023-06-14T09:51:01;101528.48;;;18.53;52.24
55460;BME280;41326;45.302;-122.946;2023-06-14T09:53:33;101531.68;;;18.52;52.30
55460;BME280;41326;45.302;-122.946;2023-06-14T09:56:03;101531.69;;;18.52;52.26
55460;BME280;41326;45.302;-122.946;2023-06-14T09:58:34;101528.10;;;18.51;52.28
55460;BME280;41326;45.302;-122.946;2023-06-14T10:01:01;101524.88;;;18.55;52.15
55460;BME280;41326;45.302;-122.946;2023-06-14T10:03:34;101525.46;;;18.57;52.09
55460;BME280;41326;45.302;-122.946;2023-06-14T10:06:04;101526.22;;;18.56;52.10
55460;BME280;41326;45.302;-122.946;2023-06-14T10:08:34;101528.79;;;18.52;52.12
55460;BME280;41326;45.302;-122.946;2023-06-14T10:11:03;101526.40;;;18.53;52.10
55460;BME280;41326;45.302;-122.946;2023-06-14T10:13:37;101529.35;;;18.51;52.15
55460;BME280;41326;45.302;-122.946;2023-06-14T10:16:09;101535.14;;;18.51;52.14
55460;BME280;41326;45.302;-122.946;2023-06-14T10:18:42;101536.08;;;18.53;52.08
55460;BME280;41326;45.302;-122.946;2023-06-14T10:21:13;101540.77;;;18.50;52.17
55460;BME280;41326;45.302;-122.946;2023-06-14T10:23:37;101544.55;;;18.49;52.20
55460;BME280;41326;45.302;-122.946;2023-06-14T10:26:05;101543.92;;;18.45;52.35
55460;BME280;41326;45.302;-122.946;2023-06-14T10:28:37;101544.09;;;18.49;52.21
55460;BME280;41326;45.302;-122.946;2023-06-14T10:31:10;101540.06;;;18.52;52.08
55460;BME280;41326;45.302;-122.946;2023-06-14T10:33:36;101537.96;;;18.59;51.86
55460;BME280;41326;45.302;-122.946;2023-06-14T10:36:24;101535.98;;;18.60;51.55
55460;BME280;41326;45.302;-122.946;2023-06-14T10:38:37;101526.52;;;18.62;51.50
55460;BME280;41326;45.302;-122.946;2023-06-14T10:41:07;101524.23;;;18.65;51.47
55460;BME280;41326;45.302;-122.946;2023-06-14T10:43:38;101516.08;;;18.67;51.41
55460;BME280;41326;45.302;-122.946;2023-06-14T10:46:15;101515.94;;;18.71;51.31
55460;BME280;41326;45.302;-122.946;2023-06-14T10:48:40;101515.87;;;18.69;51.31
55460;BME280;41326;45.302;-122.946;2023-06-14T10:51:13;101520.53;;;18.61;51.30
55460;BME280;41326;45.302;-122.946;2023-06-14T10:53:43;101519.13;;;18.54;51.34
55460;BME280;41326;45.302;-122.946;2023-06-14T10:58:40;101516.59;;;18.62;51.18
55460;BME280;41326;45.302;-122.946;2023-06-14T11:01:10;101517.11;;;18.53;51.45
55460;BME280;41326;45.302;-122.946;2023-06-14T11:03:50;101523.20;;;18.51;51.57
55460;BME280;41326;45.302;-122.946;2023-06-14T11:06:20;101524.40;;;18.43;51.69
55460;BME280;41326;45.302;-122.946;2023-06-14T11:11:13;101523.99;;;18.33;52.04
55460;BME280;41326;45.302;-122.946;2023-06-14T11:13:49;101523.56;;;18.28;52.11
55460;BME280;41326;45.302;-122.946;2023-06-14T11:16:17;101522.32;;;18.26;52.13
55460;BME280;41326;45.302;-122.946;2023-06-14T11:18:44;101520.86;;;18.20;52.41
55460;BME280;41326;45.302;-122.946;2023-06-14T11:21:15;101522.34;;;18.23;52.38
55460;BME280;41326;45.302;-122.946;2023-06-14T11:23:49;101518.92;;;18.23;52.42
55460;BME280;41326;45.302;-122.946;2023-06-14T11:26:14;101512.96;;;18.23;52.43
55460;BME280;41326;45.302;-122.946;2023-06-14T11:28:45;101512.58;;;18.21;52.49
55460;BME280;41326;45.302;-122.946;2023-06-14T11:31:15;101510.06;;;18.23;52.44
55460;BME280;41326;45.302;-122.946;2023-06-14T11:33:48;101515.49;;;18.23;52.42
55460;BME280;41326;45.302;-122.946;2023-06-14T11:36:15;101515.49;;;18.19;52.52
55460;BME280;41326;45.302;-122.946;2023-06-14T11:38:46;101524.07;;;18.22;52.40
55460;BME280;41326;45.302;-122.946;2023-06-14T11:41:17;101525.97;;;18.19;52.49
55460;BME280;41326;45.302;-122.946;2023-06-14T11:43:47;101533.16;;;18.16;52.49
55460;BME280;41326;45.302;-122.946;2023-06-14T11:46:19;101533.14;;;18.14;52.41
55460;BME280;41326;45.302;-122.946;2023-06-14T11:48:48;101533.07;;;18.16;52.48
55460;BME280;41326;45.302;-122.946;2023-06-14T11:51:18;101536.20;;;18.15;52.53
55460;BME280;41326;45.302;-122.946;2023-06-14T11:53:49;101537.22;;;18.11;52.65
55460;BME280;41326;45.302;-122.946;2023-06-14T11:56:19;101536.24;;;18.10;52.59
55460;BME280;41326;45.302;-122.946;2023-06-14T11:58:49;101539.61;;;18.09;52.57
55460;BME280;41326;45.302;-122.946;2023-06-14T12:01:23;101537.18;;;18.09;52.63
55460;BME280;41326;45.302;-122.946;2023-06-14T12:03:54;101541.03;;;18.13;52.52
55460;BME280;41326;45.302;-122.946;2023-06-14T12:08:50;101540.40;;;18.10;52.65
55460;BME280;41326;45.302;-122.946;2023-06-14T12:11:20;101542.45;;;18.06;52.74
55460;BME280;41326;45.302;-122.946;2023-06-14T12:13:50;101541.63;;;18.04;52.70
55460;BME280;41326;45.302;-122.946;2023-06-14T12:16:21;101546.14;;;17.98;52.65
55460;BME280;41326;45.302;-122.946;2023-06-14T12:18:51;101550.29;;;18.01;52.60
55460;BME280;41326;45.302;-122.946;2023-06-14T12:21:22;101551.87;;;18.02;52.65
55460;BME280;41326;45.302;-122.946;2023-06-14T12:23:53;101549.83;;;18.00;52.75
55460;BME280;41326;45.302;-122.946;2023-06-14T12:26:25;101556.86;;;18.01;52.74
55460;BME280;41326;45.302;-122.946;2023-06-14T12:28:53;101562.05;;;18.00;52.74
55460;BME280;41326;45.302;-122.946;2023-06-14T12:31:23;101567.82;;;18.02;52.66
55460;BME280;41326;45.302;-122.946;2023-06-14T12:33:53;101572.93;;;18.07;52.44
55460;BME280;41326;45.302;-122.946;2023-06-14T12:36:25;101572.78;;;18.11;52.30
55460;BME280;41326;45.302;-122.946;2023-06-14T12:38:54;101569.31;;;18.14;52.20
55460;BME280;41326;45.302;-122.946;2023-06-14T12:41:24;101566.29;;;18.20;52.06
55460;BME280;41326;45.302;-122.946;2023-06-14T12:43:55;101569.60;;;18.22;52.05
55460;BME280;41326;45.302;-122.946;2023-06-14T12:46:25;101565.12;;;18.20;52.05
55460;BME280;41326;45.302;-122.946;2023-06-14T12:48:55;101563.87;;;18.24;51.93